Time;durP1;ratioP1;P1;durP2;ratioP2;P2;SDS_P1;SDS_P2;PMS_P1;PMS_P2;Temp;Humidity;BMP_temperature;BMP_pressure;BME280_temperature;BME280_humidity;BME280_pressure;Samples;Min_cycle;Max_cycle;Signal;HPM_P1;HPM_P2
2022/02/08 00:01:05;;;;;;;7.17;3.17;;;7.90;65.70;;;;;;1896005;75;21502;-50
2022/02/08 00:03:34;;;;;;;3.40;2.58;;;7.90;65.40;;;;;;1898359;75;21031;-50
2022/02/08 00:06:17;;;;;;;3.45;2.87;;;7.90;65.50;;;;;;1898487;75;21027;-53
2022/02/08 00:08:34;;;;;;;3.45;2.67;;;7.90;64.90;;;;;;1895509;75;21560;-49
2022/02/08 00:11:04;;;;;;;2.55;1.80;;;7.90;64.90;;;;;;1898434;75;21020;-51
2022/02/08 00:13:34;;;;;;;9.10;2.15;;;7.90;64.90;;;;;;1898448;75;21015;-51
2022/02/08 00:16:03;;;;;;;4.28;2.40;;;7.90;64.60;;;;;;1898355;75;21031;-51
2022/02/08 00:18:33;;;;;;;3.83;2.37;;;7.90;65.00;;;;;;1898399;75;21031;-52
2022/02/08 00:21:02;;;;;;;3.37;2.15;;;7.90;64.40;;;;;;1898393;75;21003;-52
2022/02/08 00:23:31;;;;;;;4.92;2.00;;;7.90;64.30;;;;;;1898380;75;21027;-49
2022/02/08 00:26:01;;;;;;;3.12;1.62;;;7.90;64.70;;;;;;1898434;75;21426;-51
2022/02/08 00:28:30;;;;;;;6.42;2.83;;;8.00;64.40;;;;;;1898320;75;21028;-52
2022/02/08 00:31:00;;;;;;;4.58;2.70;;;8.00;65.00;;;;;;1898431;75;21101;-52
2022/02/08 00:33:29;;;;;;;4.62;2.33;;;8.00;64.70;;;;;;1898327;75;21102;-50
2022/02/08 00:36:00;;;;;;;8.00;2.75;;;8.00;64.30;;;;;;1899236;75;21121;-53
2022/02/08 00:38:32;;;;;;;2.55;1.47;;;8.00;64.70;;;;;;1903352;75;21126;-51
2022/02/08 00:41:03;;;;;;;3.60;2.05;;;8.00;64.20;;;;;;1903422;75;21105;-52
2022/02/08 00:44:21;;;;;;;9.18;2.52;;;8.00;63.80;;;;;;1903259;75;21031;-50
2022/02/08 00:46:16;;;;;;;5.30;3.10;;;8.00;64.00;;;;;;1887610;75;21047;-50
2022/02/08 00:48:43;;;;;;;4.83;2.45;;;8.00;64.10;;;;;;1903022;75;21611;-49
2022/02/08 00:51:12;;;;;;;7.37;1.92;;;8.00;64.00;;;;;;1903451;75;21073;-49
2022/02/08 00:53:41;;;;;;;2.60;2.05;;;8.00;63.70;;;;;;1903267;75;21027;-52
2022/02/08 00:56:11;;;;;;;4.30;2.77;;;8.00;63.80;;;;;;1903593;75;21043;-49
2022/02/08 00:58:40;;;;;;;9.30;3.42;;;8.10;63.90;;;;;;1903313;75;21027;-52
2022/02/08 01:01:09;;;;;;;2.25;1.82;;;8.00;63.90;;;;;;1903418;75;21136;-51
2022/02/08 01:03:39;;;;;;;4.78;2.58;;;8.10;63.30;;;;;;1903284;75;21090;-48
2022/02/08 01:06:09;;;;;;;5.72;2.42;;;8.00;63.80;;;;;;1903369;75;21054;-51
2022/02/08 01:08:40;;;;;;;8.23;2.52;;;8.10;63.30;;;;;;1903399;75;21132;-51
2022/02/08 01:11:11;;;;;;;3.15;2.83;;;8.10;63.90;;;;;;1903399;75;21027;-51
2022/02/08 01:13:43;;;;;;;5.30;2.20;;;8.10;63.90;;;;;;1903339;75;21461;-49
2022/02/08 01:16:13;;;;;;;9.88;3.52;;;8.10;63.60;;;;;;1903534;75;21035;-50
2022/02/08 01:18:44;;;;;;;3.65;2.25;;;8.00;63.50;;;;;;1903285;75;21066;-49
2022/02/08 01:21:13;;;;;;;5.62;2.98;;;8.10;63.30;;;;;;1903400;75;21035;-50
2022/02/08 01:23:42;;;;;;;4.95;1.82;;;8.10;64.20;;;;;;1903347;75;21012;-49
2022/02/08 01:26:15;;;;;;;4.08;1.92;;;8.10;62.60;;;;;;1903439;75;21019;-51
2022/02/08 01:29:54;;;;;;;5.87;2.27;;;8.10;62.40;;;;;;1903255;75;21031;-51
2022/02/08 01:31:23;;;;;;;8.65;3.12;;;8.10;62.90;;;;;;1882505;75;21082;-50
2022/02/08 01:34:29;;;;;;;2.58;1.77;;;8.20;62.50;;;;;;1903295;75;21067;-49
2022/02/08 01:36:32;;;;;;;13.20;3.02;;;8.20;62.40;;;;;;1895393;75;21344;-52
2022/02/08 01:41:48;;;;;;;4.85;3.10;;;8.30;62.40;;;;;;1903457;75;21039;-50
2022/02/08 01:49:56;;;;;;;4.15;1.72;;;8.30;61.70;;;;;;1903431;75;21039;-50
2022/02/08 01:52:07;;;;;;;4.37;2.50;;;8.30;61.10;;;;;;1899847;75;21023;-50
2022/02/08 01:54:38;;;;;;;5.53;2.40;;;8.30;61.60;;;;;;1903419;75;21039;-52
2022/02/08 01:57:08;;;;;;;4.95;2.50;;;8.30;61.90;;;;;;1903438;75;21085;-52
2022/02/08 01:59:37;;;;;;;3.35;2.22;;;8.40;61.10;;;;;;1903405;75;21027;-51
2022/02/08 02:02:06;;;;;;;4.58;2.33;;;8.40;59.70;;;;;;1903354;75;21007;-50
2022/02/08 02:04:36;;;;;;;6.45;2.02;;;8.40;60.10;;;;;;1903354;75;21089;-52
2022/02/08 02:07:05;;;;;;;7.17;2.70;;;8.40;60.20;;;;;;1903453;75;21481;-52
2022/02/08 02:09:34;;;;;;;6.97;3.00;;;8.50;60.50;;;;;;1903286;75;21026;-50
2022/02/08 02:12:08;;;;;;;3.70;2.00;;;8.40;60.00;;;;;;1902718;75;21050;-51
2022/02/08 02:14:41;;;;;;;4.97;2.30;;;8.50;58.80;;;;;;1903295;75;21019;-49
2022/02/08 02:17:11;;;;;;;4.05;2.17;;;8.50;58.50;;;;;;1903368;75;21023;-50
2022/02/08 02:19:42;;;;;;;2.52;2.00;;;8.50;56.30;;;;;;1903300;75;21426;-53
2022/02/08 02:22:12;;;;;;;4.03;2.05;;;8.60;56.50;;;;;;1903248;75;21023;-53
2022/02/08 02:24:42;;;;;;;5.28;2.67;;;8.60;58.00;;;;;;1903349;75;21007;-50
2022/02/08 02:27:12;;;;;;;2.92;2.20;;;8.60;57.70;;;;;;1903328;75;21028;-50
2022/02/08 02:29:42;;;;;;;1.92;1.60;;;8.70;56.00;;;;;;1903320;75;21089;-48
2022/02/08 02:32:13;;;;;;;3.92;2.55;;;8.70;54.90;;;;;;1903290;75;21093;-51
2022/02/08 02:34:50;;;;;;;5.05;2.27;;;8.70;54.90;;;;;;1903409;75;21020;-50
2022/02/08 02:37:21;;;;;;;7.67;2.52;;;8.80;54.60;;;;;;1902133;75;21079;-49
2022/02/08 02:39:51;;;;;;;4.85;2.45;;;8.80;55.50;;;;;;1898480;75;21023;-48
2022/02/08 02:42:20;;;;;;;3.80;1.77;;;8.90;55.10;;;;;;1898381;75;21067;-47
2022/02/08 02:44:50;;;;;;;6.67;2.98;;;8.90;54.80;;;;;;1898388;75;21136;-47
2022/02/08 02:47:22;;;;;;;2.27;2.08;;;8.90;54.70;;;;;;1898376;75;21137;-48
2022/02/08 02:49:53;;;;;;;2.42;1.72;;;8.90;54.30;;;;;;1898374;75;21101;-47
2022/02/08 02:52:22;;;;;;;3.02;2.02;;;9.00;54.70;;;;;;1898454;75;21051;-47
2022/02/08 02:54:54;;;;;;;4.28;1.87;;;9.00;54.60;;;;;;1897716;75;21079;-50
2022/02/08 02:57:25;;;;;;;3.50;1.70;;;8.90;54.30;;;;;;1898278;75;21097;-50
2022/02/08 03:00:11;;;;;;;2.05;1.45;;;9.00;53.30;;;;;;1898591;75;21044;-50
2022/02/08 03:02:42;;;;;;;2.40;1.80;;;9.00;52.20;;;;;;1897356;75;21168;-50
2022/02/08 03:19:07;;;;;;;4.20;2.10;;;9.20;53.10;;;;;;1898479;75;21055;-50
2022/02/08 03:21:37;;;;;;;3.55;1.70;;;9.20;53.20;;;;;;1898531;75;21031;-53
2022/02/08 03:24:07;;;;;;;1.47;1.32;;;9.20;52.90;;;;;;1898423;75;21023;-50
2022/02/08 03:26:36;;;;;;;3.25;2.17;;;9.20;52.00;;;;;;1898450;75;21059;-50
2022/02/08 03:29:06;;;;;;;4.85;1.80;;;9.20;52.10;;;;;;1898455;75;21031;-49
2022/02/08 03:31:37;;;;;;;2.62;2.02;;;9.20;51.70;;;;;;1866142;75;21015;-50
2022/02/08 03:34:06;;;;;;;3.65;1.85;;;9.20;52.10;;;;;;1898443;75;21085;-49
2022/02/08 03:36:37;;;;;;;4.60;1.90;;;9.20;51.60;;;;;;1898285;75;21121;-51
2022/02/08 03:41:54;;;;;;;2.35;1.45;;;9.30;52.60;;;;;;1898047;75;21168;-51
2022/02/08 03:44:22;;;;;;;3.30;1.87;;;9.30;50.30;;;;;;1897256;75;21160;-50
2022/02/08 03:46:51;;;;;;;2.67;1.72;;;9.40;50.20;;;;;;1898266;75;21111;-49
2022/02/08 03:49:21;;;;;;;2.05;1.80;;;9.40;50.00;;;;;;1898450;75;21450;-49
2022/02/08 03:51:55;;;;;;;2.47;1.75;;;9.40;51.70;;;;;;1898315;75;21124;-51
2022/02/08 03:54:22;;;;;;;1.98;1.50;;;9.40;51.00;;;;;;1898070;75;21039;-50
2022/02/08 03:56:52;;;;;;;3.05;1.75;;;9.50;51.70;;;;;;1898410;75;21031;-49
2022/02/08 03:59:22;;;;;;;2.62;1.62;;;9.50;52.10;;;;;;1898357;75;21031;-50
2022/02/08 04:02:12;;;;;;;3.25;1.52;;;9.50;51.00;;;;;;1897922;75;21079;-51
2022/02/08 04:04:35;;;;;;;1.98;1.55;;;9.50;51.80;;;;;;1895141;75;21478;-49
2022/02/08 04:07:05;;;;;;;4.33;2.30;;;9.50;51.90;;;;;;1897228;75;21342;-51
2022/02/08 04:09:29;;;;;;;5.97;1.77;;;9.50;52.00;;;;;;1897438;75;21529;-52
2022/02/08 04:12:06;;;;;;;3.02;1.90;;;9.50;51.60;;;;;;1898197;75;21070;-51
2022/02/08 04:14:37;;;;;;;3.05;2.08;;;9.50;52.10;;;;;;1897531;75;21505;-52
2022/02/08 04:18:17;;;;;;;3.80;1.67;;;9.50;52.30;;;;;;1898136;75;21545;-49
2022/02/08 04:41:43;;;;;;;3.62;2.50;;;9.60;51.30;;;;;;1872347;75;21469;-49
2022/02/08 04:44:23;;;;;;;4.28;2.00;;;9.60;51.10;;;;;;1897253;75;21486;-51
2022/02/08 04:46:50;;;;;;;2.08;1.45;;;9.60;51.00;;;;;;1895992;75;21561;-51
2022/02/08 04:49:13;;;;;;;5.20;2.20;;;9.70;51.60;;;;;;1896876;75;21008;-50
2022/02/08 04:51:56;;;;;;;4.60;2.40;;;9.70;51.00;;;;;;1898116;75;21063;-51
2022/02/08 04:57:09;;;;;;;3.05;2.25;;;9.70;51.80;;;;;;1898294;75;21102;-52
2022/02/08 05:02:29;;;;;;;3.62;2.25;;;9.70;51.50;;;;;;1898330;75;21086;-49
2022/02/08 05:34:09;;;;;;;4.53;2.40;;;10.00;51.40;;;;;;1898313;75;21469;-51
2022/02/08 05:43:21;;;;;;;2.98;2.15;;;10.00;50.30;;;;;;1898342;75;21019;-52
2022/02/08 05:48:32;;;;;;;3.15;2.52;;;10.10;49.30;;;;;;1898437;75;21796;-51
2022/02/08 05:51:04;;;;;;;2.10;1.72;;;10.10;49.80;;;;;;1897428;75;21490;-50
2022/02/08 05:53:32;;;;;;;2.00;1.70;;;10.10;50.50;;;;;;1897622;75;21039;-49
2022/02/08 05:56:00;;;;;;;4.25;1.87;;;10.20;50.10;;;;;;1898083;75;21486;-53
2022/02/08 05:58:28;;;;;;;3.20;2.05;;;10.20;49.50;;;;;;1898193;75;21067;-49
2022/02/08 06:00:57;;;;;;;2.72;2.00;;;10.20;50.00;;;;;;1898181;75;21122;-50
2022/02/08 06:03:28;;;;;;;2.40;2.12;;;10.20;50.10;;;;;;1873022;75;21019;-51
2022/02/08 06:05:58;;;;;;;2.92;1.72;;;10.20;50.50;;;;;;1898426;75;21101;-53
2022/02/08 06:08:28;;;;;;;7.97;2.15;;;10.20;50.10;;;;;;1898252;75;21101;-50
2022/02/08 06:11:02;;;;;;;3.12;1.82;;;10.20;50.00;;;;;;1898268;75;21105;-50
2022/02/08 06:13:29;;;;;;;4.78;2.60;;;10.30;50.50;;;;;;1897441;75;21109;-51
2022/02/08 06:16:03;;;;;;;5.78;2.30;;;10.20;50.70;;;;;;1898405;75;21560;-51
2022/02/08 06:18:32;;;;;;;2.77;1.85;;;10.20;50.90;;;;;;1898366;75;21089;-50
2022/02/08 06:21:02;;;;;;;5.85;2.60;;;10.20;49.90;;;;;;1898328;75;21125;-48
2022/02/08 06:23:31;;;;;;;3.72;2.20;;;10.20;50.60;;;;;;1898222;75;21043;-49
2022/02/08 06:26:00;;;;;;;5.40;2.20;;;10.20;51.20;;;;;;1898306;75;21024;-50
2022/02/08 06:28:30;;;;;;;4.12;1.67;;;10.20;51.00;;;;;;1898541;75;21089;-52
2022/02/08 06:30:59;;;;;;;2.33;1.75;;;10.20;51.20;;;;;;1898570;75;21007;-52
2022/02/08 06:33:29;;;;;;;2.65;1.75;;;10.10;51.30;;;;;;1898377;75;21035;-49
2022/02/08 06:35:58;;;;;;;4.92;1.75;;;10.10;51.20;;;;;;1898402;75;21007;-50
2022/02/08 06:38:27;;;;;;;5.20;1.90;;;10.10;51.80;;;;;;1898407;75;21023;-50
2022/02/08 06:40:56;;;;;;;3.22;2.00;;;10.10;51.80;;;;;;1902362;75;21129;-50
2022/02/08 06:43:29;;;;;;;2.92;2.20;;;10.10;51.70;;;;;;1903394;75;21023;-51
2022/02/08 06:45:56;;;;;;;4.20;1.87;;;10.10;52.20;;;;;;1903207;75;21430;-50
2022/02/08 06:48:26;;;;;;;5.30;2.40;;;10.10;51.30;;;;;;1903404;75;21039;-50
2022/02/08 06:50:55;;;;;;;2.37;1.75;;;10.10;51.40;;;;;;1903497;75;21160;-50
2022/02/08 06:53:26;;;;;;;4.15;2.08;;;10.10;51.20;;;;;;1903489;75;21101;-51
2022/02/08 06:55:55;;;;;;;3.77;2.02;;;10.10;51.40;;;;;;1903349;75;21196;-50
2022/02/08 06:58:30;;;;;;;4.70;2.08;;;10.10;51.50;;;;;;1903538;75;21097;-51
2022/02/08 07:01:01;;;;;;;6.97;2.58;;;10.10;52.50;;;;;;1902747;75;21089;-49
2022/02/08 07:03:26;;;;;;;5.28;2.55;;;10.10;52.30;;;;;;1902661;75;21058;-50
2022/02/08 07:05:55;;;;;;;5.28;3.42;;;10.10;52.60;;;;;;1903576;75;21031;-49
2022/02/08 07:08:25;;;;;;;5.20;2.33;;;10.10;52.90;;;;;;1903573;75;21031;-52
2022/02/08 07:10:55;;;;;;;5.37;2.50;;;10.00;52.20;;;;;;1903516;75;21031;-51
2022/02/08 07:13:24;;;;;;;3.17;1.82;;;10.10;52.10;;;;;;1903567;75;21026;-52
2022/02/08 07:15:54;;;;;;;10.90;2.60;;;10.10;52.20;;;;;;1903451;75;21099;-50
2022/02/08 07:18:23;;;;;;;2.75;1.60;;;10.10;52.40;;;;;;1903452;75;21031;-50
2022/02/08 07:20:52;;;;;;;3.62;2.25;;;10.20;52.10;;;;;;1903579;75;21007;-52
2022/02/08 07:23:22;;;;;;;7.22;3.90;;;10.20;52.30;;;;;;1903514;75;21078;-50
2022/02/08 07:25:53;;;;;;;13.10;2.67;;;10.20;52.50;;;;;;1903567;75;21030;-51
2022/02/08 07:28:22;;;;;;;9.70;3.02;;;10.30;52.30;;;;;;1903426;75;21564;-49
2022/02/08 07:30:59;;;;;;;5.97;2.60;;;10.30;52.40;;;;;;1903415;75;21027;-49
2022/02/08 07:33:23;;;;;;;6.15;2.42;;;10.30;51.90;;;;;;1902259;75;21497;-50
2022/02/08 07:36:07;;;;;;;6.25;2.92;;;10.30;52.00;;;;;;1903574;75;21120;-51
2022/02/08 07:38:35;;;;;;;5.30;2.77;;;10.40;52.30;;;;;;1902084;75;21043;-52
2022/02/08 07:43:31;;;;;;;5.47;3.20;;;10.50;52.10;;;;;;1903390;75;21023;-51
2022/02/08 07:46:20;;;;;;;5.80;2.67;;;10.50;51.50;;;;;;1901840;75;21054;-51
2022/02/08 07:48:49;;;;;;;4.78;2.17;;;10.50;51.50;;;;;;1903628;75;21197;-50
2022/02/08 07:51:20;;;;;;;3.05;2.17;;;10.60;52.80;;;;;;1903411;75;21027;-51
2022/02/08 07:53:49;;;;;;;6.65;3.52;;;10.60;52.60;;;;;;1903542;75;21027;-49
2022/02/08 07:56:19;;;;;;;4.10;2.58;;;10.70;52.80;;;;;;1903416;75;21122;-49
2022/02/08 07:58:48;;;;;;;5.03;2.62;;;10.70;53.00;;;;;;1903432;75;21030;-52
2022/02/08 08:01:18;;;;;;;5.53;2.67;;;10.70;53.40;;;;;;1903416;75;21062;-52
2022/02/08 08:03:47;;;;;;;10.53;2.67;;;10.70;53.60;;;;;;1903431;75;21148;-50
2022/02/08 08:06:18;;;;;;;6.35;2.70;;;10.70;53.90;;;;;;1903547;75;21035;-50
2022/02/08 08:08:48;;;;;;;6.65;2.52;;;10.70;54.10;;;;;;1903478;75;21097;-53
2022/02/08 08:11:21;;;;;;;8.30;3.42;;;10.70;54.50;;;;;;1903554;75;21031;-50
2022/02/08 08:14:00;;;;;;;8.35;2.98;;;10.70;54.60;;;;;;1902021;75;21619;-48
2022/02/08 08:16:45;;;;;;;12.98;3.30;;;10.70;54.90;;;;;;1900377;75;21023;-47
2022/02/08 08:19:03;;;;;;;5.22;2.87;;;10.70;55.10;;;;;;1899885;75;21046;-47
2022/02/08 08:21:31;;;;;;;8.38;3.50;;;10.70;55.20;;;;;;1902411;75;21063;-45
2022/02/08 08:24:03;;;;;;;5.83;3.15;;;10.80;55.30;;;;;;1902938;75;21140;-47
2022/02/08 08:26:34;;;;;;;3.42;2.92;;;10.80;55.50;;;;;;1901792;75;21094;-48
2022/02/08 08:29:04;;;;;;;4.00;2.45;;;10.80;55.60;;;;;;1902670;75;21067;-47
2022/02/08 08:31:33;;;;;;;6.60;4.10;;;10.80;55.70;;;;;;1902945;75;21138;-48
2022/02/08 08:34:03;;;;;;;4.72;3.05;;;10.80;55.80;;;;;;1902870;75;21062;-47
2022/02/08 08:36:32;;;;;;;6.50;3.20;;;10.80;56.10;;;;;;1902634;75;21156;-46
2022/02/08 08:39:03;;;;;;;12.82;3.85;;;10.80;56.20;;;;;;1902968;75;21081;-46
2022/02/08 08:41:38;;;;;;;27.07;11.78;;;10.80;56.40;;;;;;1900078;75;21118;-47
2022/02/08 08:52:18;;;;;;;3.95;2.37;;;10.90;56.40;;;;;;1897710;75;21117;-47
2022/02/08 08:54:46;;;;;;;4.97;2.72;;;10.90;56.50;;;;;;1897886;75;21081;-49
2022/02/08 08:57:15;;;;;;;3.42;2.40;;;10.90;56.50;;;;;;1897814;75;21074;-48
2022/02/08 08:59:45;;;;;;;10.65;3.50;;;10.90;56.40;;;;;;1897712;75;21094;-47
2022/02/08 09:02:14;;;;;;;5.65;2.65;;;11.00;56.70;;;;;;1897720;75;21075;-47
2022/02/08 09:04:44;;;;;;;6.75;3.65;;;11.00;56.60;;;;;;1897749;75;21097;-48
2022/02/08 09:07:13;;;;;;;6.78;3.35;;;11.10;56.60;;;;;;1897787;75;21089;-50
2022/02/08 09:09:46;;;;;;;5.35;3.10;;;11.10;56.50;;;;;;1897899;75;21081;-48
2022/02/08 09:12:24;;;;;;;5.65;4.10;;;11.20;56.70;;;;;;1897648;75;21106;-48
2022/02/08 09:20:32;;;;;;;11.53;4.50;;;11.30;57.00;;;;;;1897682;75;21105;-47
2022/02/08 09:25:38;;;;;;;7.37;3.20;;;11.30;57.10;;;;;;1897779;75;21023;-46
2022/02/08 09:27:51;;;;;;;9.55;2.77;;;11.40;57.30;;;;;;1893016;75;21446;-47
2022/02/08 09:30:17;;;;;;;5.80;3.10;;;11.40;57.50;;;;;;1896482;75;21086;-47
2022/02/08 09:32:50;;;;;;;5.92;2.72;;;11.40;57.80;;;;;;1897979;75;21568;-46
2022/02/08 09:35:17;;;;;;;5.47;3.30;;;11.40;58.10;;;;;;1897201;75;21628;-48
2022/02/08 09:37:47;;;;;;;5.47;3.10;;;11.50;58.70;;;;;;1897784;75;21093;-47
2022/02/08 09:40:19;;;;;;;5.62;3.35;;;11.40;59.10;;;;;;1892512;74;21071;-46
2022/02/08 09:42:53;;;;;;;5.08;3.25;;;11.40;59.60;;;;;;1882873;75;21064;-46
2022/02/08 09:45:24;;;;;;;5.28;3.08;;;11.40;59.90;;;;;;1881612;75;21592;-47
2022/02/08 09:48:02;;;;;;;7.78;3.72;;;11.40;60.30;;;;;;1883343;75;21005;-47
2022/02/08 09:50:33;;;;;;;16.50;3.90;;;11.40;60.70;;;;;;1911945;75;21137;-47
2022/02/08 09:53:03;;;;;;;4.28;3.10;;;11.30;61.20;;;;;;1912419;75;21050;-48
2022/02/08 09:55:37;;;;;;;9.20;4.33;;;11.20;61.20;;;;;;1912454;75;21039;-46
2022/02/08 09:58:07;;;;;;;4.78;3.37;;;11.20;61.70;;;;;;1912380;75;21098;-46
2022/02/08 10:00:39;;;;;;;5.47;2.90;;;11.20;61.80;;;;;;1912549;75;21058;-46
2022/02/08 10:03:11;;;;;;;8.50;3.08;;;11.10;62.30;;;;;;1912437;75;21054;-49
2022/02/08 10:05:42;;;;;;;6.58;3.17;;;11.10;62.20;;;;;;1912131;75;21379;-51
2022/02/08 10:08:11;;;;;;;5.45;3.45;;;11.10;62.60;;;;;;1912565;75;21043;-53
2022/02/08 10:10:42;;;;;;;6.42;3.30;;;11.10;62.50;;;;;;1912560;75;21112;-48
2022/02/08 10:13:41;;;;;;;7.50;5.08;;;11.10;62.50;;;;;;1912393;75;21523;-51
2022/02/08 10:24:02;;;;;;;6.72;4.28;;;11.10;62.60;;;;;;1905732;75;21053;-48
2022/02/08 10:26:55;;;;;;;6.30;3.70;;;11.10;62.70;;;;;;1899157;75;21018;-51
2022/02/08 10:29:22;;;;;;;8.23;4.25;;;11.00;62.60;;;;;;1892399;75;21064;-49
2022/02/08 10:37:44;;;;;;;11.10;3.00;;;11.10;62.60;;;;;;1881207;76;21474;-50
2022/02/08 10:40:15;;;;;;;8.28;3.77;;;11.10;62.40;;;;;;1880224;75;21130;-48
2022/02/08 10:43:04;;;;;;;11.50;4.55;;;11.00;62.10;;;;;;1875338;75;21490;-53
2022/02/08 10:45:34;;;;;;;6.33;3.98;;;11.10;61.90;;;;;;1870823;76;21106;-51
2022/02/08 10:48:18;;;;;;;11.90;4.17;;;11.10;61.90;;;;;;1872236;76;21003;-54
2022/02/08 10:50:52;;;;;;;9.03;3.92;;;11.10;61.90;;;;;;1871924;75;21093;-50
2022/02/08 10:53:20;;;;;;;4.75;3.37;;;11.10;62.00;;;;;;1871876;76;21332;-54
2022/02/08 10:56:06;;;;;;;7.53;3.52;;;11.20;62.20;;;;;;1871994;77;21051;-49
2022/02/08 10:58:44;;;;;;;6.55;3.60;;;11.10;62.50;;;;;;1871664;76;21144;-51
2022/02/08 11:01:14;;;;;;;8.85;3.42;;;11.20;62.80;;;;;;1871796;76;21067;-53
2022/02/08 11:03:54;;;;;;;5.42;4.08;;;11.10;63.50;;;;;;1871517;76;21099;-50
2022/02/08 11:06:30;;;;;;;7.78;3.92;;;11.10;63.70;;;;;;1870460;76;21105;-50
2022/02/08 11:14:29;;;;;;;5.78;4.08;;;11.00;65.80;;;;;;1872575;77;21026;-55
2022/02/08 11:17:42;;;;;;;8.25;3.52;;;11.00;66.30;;;;;;1872133;76;21031;-52
2022/02/08 11:22:46;;;;;;;11.73;5.15;;;10.90;66.90;;;;;;1872900;77;21541;-52
2022/02/08 11:25:24;;;;;;;6.95;3.80;;;10.90;67.30;;;;;;1872609;76;21051;-52
2022/02/08 11:27:54;;;;;;;5.60;3.72;;;10.80;67.70;;;;;;1872131;76;21027;-51
2022/02/08 11:30:51;;;;;;;5.25;4.05;;;10.70;68.10;;;;;;1872271;76;21101;-49
2022/02/08 11:33:43;;;;;;;6.35;3.80;;;10.70;68.80;;;;;;1872480;76;21003;-51
2022/02/08 11:39:18;;;;;;;5.42;3.92;;;10.60;70.30;;;;;;1873089;77;21047;-50
2022/02/08 11:47:37;;;;;;;7.67;4.35;;;10.40;70.20;;;;;;1872859;77;21047;-51
2022/02/08 11:58:11;;;;;;;7.28;4.25;;;10.30;70.80;;;;;;1872960;76;21059;-49
2022/02/08 12:00:41;;;;;;;5.58;4.05;;;10.40;71.10;;;;;;1871328;75;21058;-50
2022/02/08 12:03:54;;;;;;;5.75;3.40;;;10.40;71.20;;;;;;1872598;76;21039;-52
2022/02/08 12:06:02;;;;;;;8.28;4.30;;;10.30;70.70;;;;;;1798336;79;21062;-49
2022/02/08 12:08:18;;;;;;;5.33;2.93;;;10.30;70.80;;;;;;1871973;75;21117;-52
2022/02/08 12:11:00;;;;;;;8.38;4.15;;;10.40;71.40;;;;;;1872892;76;21031;-49
2022/02/08 12:33:02;;;;;;;5.55;3.58;;;10.30;72.00;;;;;;1872992;77;21036;-51
2022/02/08 13:00:26;;;;;;;7.80;3.87;;;10.10;73.40;;;;;;1891719;76;21022;-48
2022/02/08 13:03:12;;;;;;;6.80;4.25;;;10.00;74.00;;;;;;1890461;75;21038;-50
2022/02/08 13:06:03;;;;;;;13.00;5.85;;;10.10;75.20;;;;;;1889047;75;21015;-51
2022/02/08 14:09:34;;;;;;;4.67;3.65;;;9.80;76.10;;;;;;1885285;76;21104;-47
2022/02/08 14:12:22;;;;;;;9.25;4.72;;;9.70;76.80;;;;;;1883908;76;21465;-48
2022/02/08 14:14:35;;;;;;;4.75;3.87;;;9.70;76.30;;;;;;1881840;76;21092;-48
2022/02/08 14:19:54;;;;;;;5.58;4.17;;;9.70;76.80;;;;;;1885089;75;21038;-48
2022/02/08 14:22:51;;;;;;;6.00;3.75;;;9.60;77.00;;;;;;1885012;76;21535;-48
2022/02/08 14:30:43;;;;;;;7.55;5.05;;;9.60;77.20;;;;;;1885361;76;21015;-48
2022/02/08 15:00:37;;;;;;;7.75;4.78;;;9.40;78.90;;;;;;1829802;77;21017;-46
2022/02/08 15:08:27;;;;;;;7.42;5.37;;;9.40;78.80;;;;;;1824881;78;21149;-46
2022/02/08 15:10:55;;;;;;;8.73;4.97;;;9.40;78.70;;;;;;1825298;77;21151;-48
2022/02/08 15:13:26;;;;;;;8.35;4.83;;;9.30;79.00;;;;;;1876362;75;21131;-46
2022/02/08 15:16:05;;;;;;;6.92;4.87;;;9.30;78.90;;;;;;1818592;79;21600;-49
2022/02/08 15:18:30;;;;;;;8.05;5.60;;;9.30;78.90;;;;;;1877850;75;21119;-49
2022/02/08 15:21:00;;;;;;;8.63;5.00;;;9.30;78.90;;;;;;1880912;75;21009;-47
2022/02/08 15:23:30;;;;;;;8.88;5.08;;;9.30;79.30;;;;;;1892730;75;21131;-51
2022/02/08 15:26:00;;;;;;;8.30;5.20;;;9.30;79.20;;;;;;1892427;75;21017;-49
2022/02/08 15:28:29;;;;;;;7.58;5.12;;;9.30;79.30;;;;;;1893639;75;21010;-46
2022/02/08 15:30:59;;;;;;;8.33;5.65;;;9.30;79.30;;;;;;1885327;75;21033;-45
2022/02/08 15:33:28;;;;;;;10.50;5.85;;;9.30;79.60;;;;;;1876432;75;21037;-45
2022/02/08 15:35:58;;;;;;;7.22;5.20;;;9.30;79.20;;;;;;1876396;76;21029;-45
2022/02/08 15:38:29;;;;;;;7.60;5.10;;;9.30;79.70;;;;;;1876558;75;21049;-46
2022/02/08 15:41:00;;;;;;;8.95;5.50;;;9.30;79.60;;;;;;1876442;76;21009;-44
2022/02/08 15:43:30;;;;;;;6.47;5.20;;;9.30;79.70;;;;;;1876476;76;21057;-45
2022/02/08 15:46:16;;;;;;;9.98;5.83;;;9.30;79.80;;;;;;1886611;75;21046;-45
2022/02/08 15:48:34;;;;;;;8.90;5.60;;;9.30;79.80;;;;;;1887586;75;21103;-46
2022/02/08 15:51:17;;;;;;;10.38;6.28;;;9.30;79.90;;;;;;1887616;76;21004;-46
2022/02/08 15:53:52;;;;;;;13.28;7.45;;;9.40;80.30;;;;;;1887534;75;21110;-45
2022/02/08 15:56:35;;;;;;;10.68;6.85;;;9.30;80.40;;;;;;1886885;75;21024;-46
2022/02/08 16:15:28;;;;;;;6.22;5.05;;;9.50;80.30;;;;;;1888869;76;21048;-45
2022/02/08 16:20:55;;;;;;;8.15;5.33;;;9.50;80.40;;;;;;1888835;76;21099;-45
2022/02/08 16:23:28;;;;;;;9.78;5.53;;;9.60;80.10;;;;;;1886519;75;21083;-45
2022/02/08 16:28:26;;;;;;;12.58;5.55;;;9.60;80.10;;;;;;1798203;79;21132;-45
2022/02/08 16:31:21;;;;;;;8.33;5.25;;;9.60;80.00;;;;;;1820384;79;21107;-45
2022/02/08 16:45:56;;;;;;;7.78;5.03;;;9.60;79.70;;;;;;1852396;77;21053;-45
2022/02/08 16:55:43;;;;;;;7.80;4.50;;;9.60;80.10;;;;;;1872888;75;21071;-45
2022/02/08 17:00:33;;;;;;;5.58;4.05;;;9.60;80.90;;;;;;1872955;77;21110;-46
2022/02/08 17:03:06;;;;;;;8.25;5.42;;;9.60;80.80;;;;;;1872886;77;21029;-46
2022/02/08 17:05:33;;;;;;;6.90;5.12;;;9.50;80.70;;;;;;1872668;76;21052;-46
2022/02/08 17:08:02;;;;;;;8.13;4.95;;;9.50;81.10;;;;;;1872901;77;21044;-45
2022/02/08 17:10:41;;;;;;;7.08;4.37;;;9.50;81.20;;;;;;1872843;77;21036;-48
2022/02/08 17:13:30;;;;;;;6.60;4.30;;;9.50;81.10;;;;;;1872132;76;21064;-45
2022/02/08 17:16:05;;;;;;;7.10;5.35;;;9.40;81.30;;;;;;1871462;76;21118;-46
2022/02/08 17:18:56;;;;;;;6.92;4.62;;;9.40;81.40;;;;;;1871423;76;21053;-47
2022/02/08 17:48:35;;;;;;;10.53;5.37;;;9.30;81.60;;;;;;1880810;75;21076;-47
2022/02/08 17:51:03;;;;;;;9.73;5.45;;;9.30;82.20;;;;;;1891496;75;21082;-47
2022/02/08 17:53:32;;;;;;;8.18;5.67;;;9.30;81.60;;;;;;1891562;76;21074;-47
2022/02/08 17:56:01;;;;;;;12.00;5.20;;;9.30;82.00;;;;;;1891480;76;21028;-49
2022/02/08 17:58:33;;;;;;;7.72;4.70;;;9.30;81.80;;;;;;1891627;75;21126;-47
2022/02/08 18:01:02;;;;;;;9.35;5.00;;;9.30;82.00;;;;;;1891653;75;21098;-48
2022/02/08 18:03:33;;;;;;;12.35;6.78;;;9.30;81.60;;;;;;1891610;76;21008;-46
2022/02/08 18:06:02;;;;;;;8.25;5.85;;;9.40;81.70;;;;;;1891484;76;21028;-46
2022/02/08 18:08:33;;;;;;;7.70;5.20;;;9.30;81.80;;;;;;1871623;76;21443;-46
2022/02/08 18:11:03;;;;;;;9.18;5.67;;;9.40;82.00;;;;;;1891554;76;21020;-47
2022/02/08 18:13:38;;;;;;;8.53;5.30;;;9.40;82.10;;;;;;1891548;76;21078;-48
2022/02/08 18:16:03;;;;;;;8.70;5.22;;;9.40;82.70;;;;;;1890942;75;21564;-46
2022/02/08 18:18:40;;;;;;;7.20;5.35;;;9.40;82.30;;;;;;1891550;74;21099;-50
2022/02/08 18:21:15;;;;;;;8.13;4.70;;;9.40;82.40;;;;;;1890880;75;21024;-47
2022/02/08 18:23:49;;;;;;;8.23;5.47;;;9.40;82.50;;;;;;1890237;75;21169;-48
2022/02/08 18:54:10;;;;;;;19.02;5.97;;;9.40;82.20;;;;;;1872921;77;21048;-46
2022/02/08 18:56:49;;;;;;;;;;;9.40;82.80;;;;;;1875778;75;21302;-46
2022/02/08 19:05:57;;;;;;;7.78;4.87;;;9.30;82.50;;;;;;1872950;77;21103;-47
2022/02/08 19:12:30;;;;;;;8.20;5.28;;;9.30;83.10;;;;;;1872987;76;21017;-46
2022/02/08 19:20:29;;;;;;;9.30;5.42;;;9.30;82.70;;;;;;1872855;77;21136;-46
2022/02/08 19:22:55;;;;;;;11.45;7.12;;;9.30;82.80;;;;;;1872732;76;21056;-45
2022/02/08 19:25:24;;;;;;;12.50;5.87;;;9.30;83.00;;;;;;1872868;76;21023;-47
2022/02/08 19:27:55;;;;;;;17.67;6.90;;;9.40;82.90;;;;;;1872920;77;21465;-46
2022/02/08 19:30:25;;;;;;;11.65;5.80;;;9.40;82.90;;;;;;1872968;77;21460;-45
2022/02/08 19:32:54;;;;;;;13.85;7.15;;;9.40;83.00;;;;;;1872911;76;21160;-46
2022/02/08 19:35:23;;;;;;;17.48;6.58;;;9.40;83.10;;;;;;1860659;77;21032;-46
2022/02/08 19:37:52;;;;;;;9.55;5.67;;;9.40;83.20;;;;;;1872940;77;21089;-47
2022/02/08 19:40:23;;;;;;;9.38;5.72;;;9.50;83.10;;;;;;1872981;75;21024;-46
2022/02/08 19:42:52;;;;;;;9.18;5.30;;;9.50;83.00;;;;;;1872835;77;21053;-46
2022/02/08 19:45:25;;;;;;;10.78;5.53;;;9.40;83.20;;;;;;1872868;77;21029;-46
2022/02/08 19:47:53;;;;;;;8.00;4.83;;;9.40;83.20;;;;;;1872866;76;21585;-46
2022/02/08 19:50:22;;;;;;;9.00;5.10;;;9.40;83.30;;;;;;1872888;75;21064;-46
2022/02/08 19:52:51;;;;;;;7.97;4.08;;;9.40;83.30;;;;;;1872815;75;21024;-46
2022/02/08 19:55:28;;;;;;;8.88;4.80;;;9.40;83.40;;;;;;1872963;76;21004;-46
2022/02/08 19:57:54;;;;;;;9.53;4.17;;;9.40;83.50;;;;;;1872477;76;21511;-48
2022/02/08 20:00:30;;;;;;;7.90;4.50;;;9.40;83.60;;;;;;1872935;77;21029;-49
2022/02/08 20:02:57;;;;;;;8.03;4.12;;;9.40;83.40;;;;;;1872338;76;21045;-46
2022/02/08 20:05:29;;;;;;;7.37;4.22;;;9.40;83.30;;;;;;1872838;75;21001;-45